Etusivu
METAR-TAF:

METAR-TAF

Lentoasemat :

Fuerteventuran lentoasema

Fuerteventura, Espanja

Leveyspiiri: 28-27N, Pituuspiiri: 013-52W, korkeus merenpinnasta: 22 m

Tämänhetkinen sää

Tämä raportti tehtiin 12 minuuttia sitten, kello 13.00 UTC
Tuuli 22 kn pohjoisesta/koillisesta
Lämpötila 22°C
Kosteus 57%
Ilmanpaine 1022 hPa
Näkyvyys 10 km tai enemmän
Muutamia pilviä 3000 ft:n korkeudessa

METAR: GCFV 291300Z 03022KT 9999 FEW030 22/13 Q1022

Aika: 13:12 (13:12 UTC)

Sääennuste

Tämä raportti tehtiin 5 tuntia ja 12 minuuttia sitten, kello 08.00 UTC
Ennuste voimassa 29. päivästä klo 09 UTC - 01. päivään klo 09 UTC
Tuuli 17 kn koillisesta
Näkyvyys 10 km tai enemmän
Hajanaisia pilviä 3000 ft:n korkeudessa

TAF: GCFV 290800Z 2909/0109 04017KT 9999 SCT030 TX22/2914Z TN16/0106Z

Säähavainnot ja -ennusteet yli 4000 lentoasemalta (METAR- ja TAF-raportit).

Käytössä olevat sääasemat on merkitty karttaan keltaisilla ja punaisilla pisteillä.

Aseta hiiri pisteen päälle nähdäksesi sääaseman nimen.

Klikkaa sitten nähdäksesi säähavainnot ja -ennusteet.

Kartan vaihtaminen: klikkaa mustalla rastilla varustettuja vihreitä pisteitä, niin voit zoomata sisään; viivalla varustettua vihreää pistettä, niin voit zoomata ulos tai vihreitä nuolia, niin pääset viereisille kartoille.


METAR-TAF: